createdAt,value
2022-10-31T00:00:05.323Z,94284.97
2022-10-31T00:01:11.356Z,94282.94
2022-10-31T00:02:12.850Z,94282.38
2022-10-31T00:03:14.373Z,94288.56
2022-10-31T00:04:15.803Z,94284.09
2022-10-31T00:05:17.356Z,94282.44
2022-10-31T00:06:18.950Z,94286.81
2022-10-31T00:07:20.432Z,94280.69
2022-10-31T00:08:21.840Z,94283.19
2022-10-31T00:09:23.314Z,94283.31
2022-10-31T00:10:24.760Z,94282.78
2022-10-31T00:11:26.609Z,94282.75
2022-10-31T00:12:28.094Z,94285.41
2022-10-31T00:13:32.029Z,94289.88
2022-10-31T00:14:33.474Z,94288.16
2022-10-31T00:15:35.142Z,94295.06
2022-10-31T00:16:36.625Z,94291.78
2022-10-31T00:17:38.048Z,94289.06
2022-10-31T00:18:39.494Z,94295.41
2022-10-31T00:19:40.932Z,94289.44
2022-10-31T00:20:42.487Z,94285.16
2022-10-31T00:21:43.920Z,94283.31
2022-10-31T00:22:45.353Z,94290.41
2022-10-31T00:23:46.970Z,94286.47
2022-10-31T00:24:48.458Z,94294.88
2022-10-31T00:25:49.931Z,94290.06
2022-10-31T00:26:51.354Z,94288.44
2022-10-31T00:27:52.812Z,94289.88
2022-10-31T00:28:55.830Z,94284.97
2022-10-31T00:29:57.267Z,94283.13
2022-10-31T00:31:02.462Z,94285.13
2022-10-31T00:32:04.187Z,94288.00
2022-10-31T00:33:05.634Z,94285.13
2022-10-31T00:34:07.380Z,94281.22
2022-10-31T00:35:09.099Z,94286.34
2022-10-31T00:36:12.725Z,94291.88
2022-10-31T00:37:14.145Z,94288.94
2022-10-31T00:38:15.538Z,94291.81
2022-10-31T00:39:16.968Z,94289.16
2022-10-31T00:40:18.387Z,94291.28
2022-10-31T00:41:19.882Z,94297.41
2022-10-31T00:42:21.343Z,94295.78
2022-10-31T00:43:22.976Z,94296.63
2022-10-31T00:44:25.748Z,94292.84
2022-10-31T00:45:27.210Z,94296.91
2022-10-31T00:46:28.799Z,94299.13
2022-10-31T00:47:30.217Z,94294.44
2022-10-31T00:48:31.719Z,94303.66
2022-10-31T00:49:33.160Z,94297.28
2022-10-31T00:50:34.621Z,94296.44
2022-10-31T00:51:36.031Z,94295.41
2022-10-31T00:52:37.482Z,94298.47
2022-10-31T00:53:38.934Z,94293.16
2022-10-31T00:54:40.375Z,94300.16
2022-10-31T00:55:41.816Z,94295.63
2022-10-31T00:56:43.256Z,94300.72
2022-10-31T00:57:47.162Z,94296.50
2022-10-31T00:58:48.586Z,94297.19
2022-10-31T00:59:51.386Z,94298.00
2022-10-31T01:00:53.912Z,94295.38
2022-10-31T01:01:55.508Z,94295.97
2022-10-31T01:02:57.305Z,94291.72
2022-10-31T01:03:58.999Z,94293.91
2022-10-31T01:05:00.447Z,94290.06
2022-10-31T01:06:05.299Z,94296.00
2022-10-31T01:07:06.733Z,94288.03
2022-10-31T01:08:08.136Z,94290.69
2022-10-31T01:09:09.609Z,94287.25
2022-10-31T01:10:12.055Z,94291.34
2022-10-31T01:11:16.059Z,94287.47
2022-10-31T01:12:17.527Z,94285.84
2022-10-31T01:13:19.004Z,94283.22
2022-10-31T01:14:20.534Z,94283.03
2022-10-31T01:15:23.951Z,94286.72
2022-10-31T01:16:27.322Z,94283.47
2022-10-31T01:17:28.750Z,94284.47
2022-10-31T01:18:31.070Z,94285.91
2022-10-31T01:19:32.521Z,94280.59
2022-10-31T01:20:33.951Z,94281.22
2022-10-31T01:21:35.399Z,94285.91
2022-10-31T01:22:36.868Z,94287.75
2022-10-31T01:23:38.655Z,94280.81
2022-10-31T01:24:40.086Z,94281.44
2022-10-31T01:25:41.492Z,94284.91
2022-10-31T01:26:42.939Z,94280.41
2022-10-31T01:27:44.389Z,94280.41
2022-10-31T01:28:48.102Z,94278.97
2022-10-31T01:29:49.623Z,94277.97
2022-10-31T01:30:52.381Z,94282.25
2022-10-31T01:31:53.804Z,94282.44
2022-10-31T01:32:55.267Z,94281.38
2022-10-31T01:33:57.374Z,94284.44
2022-10-31T01:34:58.862Z,94279.91
2022-10-31T01:36:00.427Z,94278.91
2022-10-31T01:37:01.903Z,94283.59
2022-10-31T01:38:03.335Z,94282.53
2022-10-31T01:39:07.559Z,94275.88
2022-10-31T01:40:10.390Z,94282.19
2022-10-31T01:41:13.756Z,94270.50
2022-10-31T01:42:19.464Z,94280.50
2022-10-31T01:44:52.709Z,94280.16
2022-10-31T01:45:55.518Z,94286.41
2022-10-31T01:47:00.282Z,94279.44
2022-10-31T01:48:02.013Z,94279.53
2022-10-31T01:49:06.415Z,94275.22
2022-10-31T01:50:14.681Z,94283.22
2022-10-31T01:51:18.849Z,94273.47
2022-10-31T01:52:25.811Z,94272.72
2022-10-31T01:53:27.367Z,94277.88
2022-10-31T01:54:33.706Z,94270.34
2022-10-31T01:55:40.145Z,94268.34
2022-10-31T01:56:47.370Z,94274.47
2022-10-31T01:57:52.754Z,94268.16
2022-10-31T01:58:55.994Z,94269.38
2022-10-31T02:00:01.609Z,94272.44
2022-10-31T02:01:07.938Z,94268.97
2022-10-31T02:02:10.409Z,94268.16
2022-10-31T02:03:12.389Z,94268.34
2022-10-31T02:04:14.871Z,94276.53
2022-10-31T02:05:20.682Z,94268.56
2022-10-31T02:06:31.928Z,94274.06
2022-10-31T02:07:39.296Z,94277.53
2022-10-31T02:08:41.945Z,94272.03
2022-10-31T02:09:45.845Z,94273.03
2022-10-31T02:10:47.290Z,94269.16
2022-10-31T02:11:48.789Z,94275.69
2022-10-31T02:12:52.683Z,94271.41
2022-10-31T02:13:54.341Z,94268.16
2022-10-31T02:14:55.791Z,94272.22
2022-10-31T02:15:59.370Z,94282.41
2022-10-31T02:17:02.168Z,94274.84
2022-10-31T02:18:04.673Z,94270.59
2022-10-31T02:19:09.968Z,94271.19
2022-10-31T02:20:16.689Z,94263.03
2022-10-31T02:21:24.331Z,94271.19
2022-10-31T02:22:32.023Z,94273.22
2022-10-31T02:23:58.975Z,94266.06
2022-10-31T02:25:19.077Z,94269.31
2022-10-31T02:27:01.890Z,94259.97
2022-10-31T02:28:41.668Z,94263.44
2022-10-31T02:30:13.002Z,94267.94
2022-10-31T02:31:30.068Z,94261.00
2022-10-31T02:32:43.902Z,94262.63
2022-10-31T02:33:51.732Z,94267.72
2022-10-31T02:34:59.293Z,94256.94
2022-10-31T02:36:10.383Z,94250.81
2022-10-31T02:37:14.992Z,94258.97
2022-10-31T02:38:28.998Z,94258.78
2022-10-31T02:39:38.526Z,94255.91
2022-10-31T02:40:48.942Z,94255.91
2022-10-31T02:41:58.691Z,94265.47
2022-10-31T02:43:07.314Z,94254.44
2022-10-31T02:44:11.562Z,94260.56
2022-10-31T02:45:21.295Z,94255.72
2022-10-31T02:46:33.238Z,94255.72
2022-10-31T02:47:37.374Z,94258.78
2022-10-31T02:48:40.804Z,94258.75
2022-10-31T02:49:49.829Z,94263.44
2022-10-31T02:50:56.106Z,94262.22
2022-10-31T02:51:57.672Z,94260.59
2022-10-31T02:52:59.215Z,94266.53
2022-10-31T02:54:00.673Z,94263.03
2022-10-31T02:55:11.711Z,94262.84
2022-10-31T02:56:15.246Z,94263.25
2022-10-31T02:57:20.473Z,94262.44
2022-10-31T02:58:25.294Z,94259.56
2022-10-31T02:59:28.007Z,94261.41
2022-10-31T03:00:31.272Z,94258.53
2022-10-31T03:02:00.707Z,94254.47
2022-10-31T03:03:13.996Z,94256.94
2022-10-31T03:04:39.938Z,94254.06
2022-10-31T03:05:50.680Z,94256.72
2022-10-31T03:06:59.274Z,94258.78
2022-10-31T03:08:07.648Z,94253.88
2022-10-31T03:09:20.179Z,94253.47
2022-10-31T03:10:32.578Z,94254.06
2022-10-31T03:11:42.927Z,94253.03
2022-10-31T03:12:55.019Z,94256.28
2022-10-31T03:14:06.555Z,94253.81
2022-10-31T03:15:15.230Z,94264.81
2022-10-31T03:16:20.051Z,94259.72
2022-10-31T03:17:32.784Z,94261.34
2022-10-31T03:18:38.803Z,94259.91
2022-10-31T03:19:43.572Z,94254.44
2022-10-31T03:20:49.042Z,94249.75
2022-10-31T03:21:54.282Z,94252.59
2022-10-31T03:22:57.520Z,94252.41
2022-10-31T03:24:01.557Z,94252.00
2022-10-31T03:25:05.330Z,94246.91
2022-10-31T03:26:09.114Z,94253.81
2022-10-31T03:27:15.695Z,94253.22
2022-10-31T03:28:24.537Z,94247.69
2022-10-31T03:29:28.779Z,94253.81
2022-10-31T03:30:32.225Z,94254.03
2022-10-31T03:31:38.052Z,94254.44
2022-10-31T03:32:45.791Z,94246.88
2022-10-31T03:33:48.888Z,94252.00
2022-10-31T03:34:51.918Z,94253.25
2022-10-31T03:35:56.731Z,94252.66
2022-10-31T03:37:02.478Z,94250.59
2022-10-31T03:38:07.916Z,94252.84
2022-10-31T03:39:13.660Z,94255.31
2022-10-31T03:40:17.588Z,94252.81
2022-10-31T03:41:22.624Z,94256.31
2022-10-31T03:42:26.065Z,94253.88
2022-10-31T03:43:33.040Z,94255.72
2022-10-31T03:44:35.507Z,94251.00
2022-10-31T03:45:42.308Z,94249.78
2022-10-31T03:46:44.598Z,94249.16
2022-10-31T03:47:47.471Z,94245.28
2022-10-31T03:48:48.984Z,94243.03
2022-10-31T03:49:50.858Z,94245.91
2022-10-31T03:51:00.732Z,94247.13
2022-10-31T03:52:12.666Z,94246.50
2022-10-31T03:53:20.309Z,94250.81
2022-10-31T03:54:26.276Z,94246.09
2022-10-31T03:55:30.935Z,94254.06
2022-10-31T03:56:37.431Z,94250.56
2022-10-31T03:57:44.264Z,94250.78
2022-10-31T03:58:54.311Z,94248.94
2022-10-31T04:00:02.215Z,94256.09
2022-10-31T04:01:06.721Z,94245.28
2022-10-31T04:02:14.250Z,94255.91
2022-10-31T04:03:23.301Z,94256.31
2022-10-31T04:04:26.421Z,94251.63
2022-10-31T04:05:29.414Z,94245.50
2022-10-31T04:06:34.975Z,94252.66
2022-10-31T04:07:42.147Z,94248.97
2022-10-31T04:08:48.891Z,94244.47
2022-10-31T04:09:52.895Z,94248.75
2022-10-31T04:10:56.627Z,94240.19
2022-10-31T04:12:00.040Z,94242.44
2022-10-31T04:13:06.483Z,94240.78
2022-10-31T04:14:08.546Z,94249.38
2022-10-31T04:15:10.943Z,94237.09
2022-10-31T04:16:17.089Z,94244.84
2022-10-31T04:17:23.340Z,94243.63
2022-10-31T04:18:26.659Z,94240.13
2022-10-31T04:19:28.204Z,94244.44
2022-10-31T04:20:33.990Z,94248.28
2022-10-31T04:21:35.481Z,94240.13
2022-10-31T04:22:36.908Z,94246.22
2022-10-31T04:23:38.474Z,94238.03
2022-10-31T04:24:41.329Z,94236.97
2022-10-31T04:25:42.746Z,94240.84
2022-10-31T04:26:44.136Z,94245.06
2022-10-31T04:27:45.550Z,94235.44
2022-10-31T04:28:47.034Z,94245.78
2022-10-31T04:29:50.809Z,94239.22
2022-10-31T04:30:52.801Z,94240.59
2022-10-31T04:31:54.258Z,94235.91
2022-10-31T04:32:55.680Z,94239.91
2022-10-31T04:33:58.481Z,94238.28
2022-10-31T04:34:59.876Z,94232.94
2022-10-31T04:36:01.333Z,94232.56
2022-10-31T04:37:02.795Z,94227.50
2022-10-31T04:38:04.199Z,94229.53
2022-10-31T04:39:05.650Z,94228.28
2022-10-31T04:40:08.143Z,94228.25
2022-10-31T04:41:09.662Z,94229.28
2022-10-31T04:42:11.079Z,94227.47
2022-10-31T04:43:12.663Z,94233.75
2022-10-31T04:44:14.185Z,94226.16
2022-10-31T04:45:18.514Z,94229.44
2022-10-31T04:46:22.790Z,94237.38
2022-10-31T04:47:24.222Z,94225.78
2022-10-31T04:48:25.926Z,94230.50
2022-10-31T04:49:28.688Z,94229.72
2022-10-31T04:50:30.112Z,94232.59
2022-10-31T04:51:31.579Z,94227.09
2022-10-31T04:52:33.160Z,94230.13
2022-10-31T04:53:34.819Z,94230.94
2022-10-31T04:54:36.289Z,94225.03
2022-10-31T04:55:37.737Z,94226.72
2022-10-31T04:56:39.204Z,94231.44
2022-10-31T04:57:44.618Z,94225.91
2022-10-31T04:58:46.078Z,94221.47
2022-10-31T04:59:47.578Z,94222.06
2022-10-31T05:00:52.473Z,94228.81
2022-10-31T05:01:54.014Z,94229.03
2022-10-31T05:02:57.581Z,94225.31
2022-10-31T05:03:59.206Z,94224.91
2022-10-31T05:05:01.963Z,94223.69
2022-10-31T05:06:03.516Z,94223.88
2022-10-31T05:07:04.973Z,94225.50
2022-10-31T05:08:06.682Z,94224.09
2022-10-31T05:09:08.139Z,94221.84
2022-10-31T05:10:10.467Z,94221.66
2022-10-31T05:11:11.914Z,94219.63
2022-10-31T05:12:13.362Z,94219.41
2022-10-31T05:13:14.857Z,94213.53
2022-10-31T05:14:16.389Z,94220.03
2022-10-31T05:15:19.494Z,94216.75
2022-10-31T05:16:20.934Z,94212.28
2022-10-31T05:17:22.441Z,94213.31
2022-10-31T05:18:24.571Z,94217.81
2022-10-31T05:19:26.018Z,94219.28
2022-10-31T05:20:30.989Z,94216.00
2022-10-31T05:21:32.442Z,94211.75
2022-10-31T05:22:33.867Z,94206.13
2022-10-31T05:23:35.295Z,94210.81
2022-10-31T05:24:36.762Z,94214.72
2022-10-31T05:25:38.226Z,94208.00
2022-10-31T05:26:39.635Z,94212.31
2022-10-31T05:27:41.542Z,94208.66
2022-10-31T05:28:42.990Z,94206.25
2022-10-31T05:29:44.432Z,94211.97
2022-10-31T05:30:45.893Z,94207.06
2022-10-31T05:31:47.326Z,94201.75
2022-10-31T05:32:50.876Z,94203.78
2022-10-31T05:33:52.359Z,94200.75
2022-10-31T05:34:53.796Z,94201.50
2022-10-31T05:35:56.586Z,94207.34
2022-10-31T05:36:58.084Z,94206.09
2022-10-31T05:38:00.242Z,94202.00
2022-10-31T05:39:01.695Z,94200.75
2022-10-31T05:40:07.242Z,94198.06
2022-10-31T05:41:09.973Z,94197.00
2022-10-31T05:42:11.418Z,94204.34
2022-10-31T05:43:12.871Z,94200.69
2022-10-31T05:44:14.315Z,94198.19
2022-10-31T05:45:18.428Z,94195.69
2022-10-31T05:46:19.932Z,94189.91
2022-10-31T05:47:21.405Z,94197.41
2022-10-31T05:48:23.288Z,94189.66
2022-10-31T05:49:24.791Z,94200.66
2022-10-31T05:50:28.127Z,94203.09
2022-10-31T05:51:30.890Z,94195.38
2022-10-31T05:52:32.340Z,94196.59
2022-10-31T05:53:33.772Z,94190.47
2022-10-31T05:54:35.260Z,94189.53
2022-10-31T05:55:36.800Z,94192.22
2022-10-31T05:56:38.234Z,94193.56
2022-10-31T05:57:39.778Z,94200.28
2022-10-31T05:58:41.226Z,94200.03
2022-10-31T05:59:42.666Z,94199.66
2022-10-31T06:00:44.140Z,94194.25
2022-10-31T06:01:45.689Z,94188.72
2022-10-31T06:02:47.345Z,94190.59
2022-10-31T06:03:48.841Z,94196.72
2022-10-31T06:04:50.448Z,94193.88
2022-10-31T06:05:55.038Z,94194.06
2022-10-31T06:06:58.639Z,94200.84
2022-10-31T06:08:00.433Z,94196.16
2022-10-31T06:09:02.136Z,94193.28
2022-10-31T06:10:06.407Z,94194.31
2022-10-31T06:11:07.851Z,94198.97
2022-10-31T06:12:09.298Z,94198.16
2022-10-31T06:13:10.754Z,94193.69
2022-10-31T06:14:12.179Z,94193.88
2022-10-31T06:15:14.120Z,94205.47
2022-10-31T06:16:15.536Z,94195.72
2022-10-31T06:17:17.001Z,94201.63
2022-10-31T06:18:18.498Z,94201.00
2022-10-31T06:19:19.928Z,94202.81
2022-10-31T06:20:21.367Z,94200.63
2022-10-31T06:21:22.880Z,94199.78
2022-10-31T06:22:25.698Z,94204.94
2022-10-31T06:23:27.132Z,94198.56
2022-10-31T06:24:28.599Z,94201.47
2022-10-31T06:25:30.039Z,94204.47
2022-10-31T06:26:31.468Z,94205.28
2022-10-31T06:27:32.918Z,94201.13
2022-10-31T06:28:34.367Z,94202.28
2022-10-31T06:29:35.820Z,94197.09
2022-10-31T06:30:37.295Z,94195.84
2022-10-31T06:31:38.732Z,94205.19
2022-10-31T06:32:40.150Z,94197.22
2022-10-31T06:33:42.136Z,94201.03
2022-10-31T06:34:44.150Z,94203.38
2022-10-31T06:35:46.416Z,94194.78
2022-10-31T06:36:48.341Z,94200.66
2022-10-31T06:37:54.704Z,94199.94
2022-10-31T06:38:56.159Z,94195.13
2022-10-31T06:39:57.606Z,94198.91
2022-10-31T06:41:02.834Z,94200.59
2022-10-31T06:42:04.923Z,94202.06
2022-10-31T06:43:06.369Z,94204.75
2022-10-31T06:44:09.044Z,94199.47
2022-10-31T06:45:10.811Z,94203.81
2022-10-31T06:46:12.264Z,94201.75
2022-10-31T06:47:13.735Z,94202.81
2022-10-31T06:48:17.948Z,94203.72
2022-10-31T06:49:19.965Z,94206.41
2022-10-31T06:50:21.705Z,94203.22
2022-10-31T06:51:23.158Z,94199.94
2022-10-31T06:52:24.628Z,94199.97
2022-10-31T06:53:28.143Z,94206.84
2022-10-31T06:54:29.600Z,94201.88
2022-10-31T06:55:31.035Z,94205.13
2022-10-31T06:56:32.527Z,94208.38
2022-10-31T06:57:33.980Z,94203.34
2022-10-31T06:58:35.467Z,94210.25
2022-10-31T06:59:36.896Z,94206.84
2022-10-31T07:00:38.390Z,94207.28
2022-10-31T07:01:39.949Z,94205.56
2022-10-31T07:02:41.472Z,94208.38
2022-10-31T07:03:42.902Z,94212.13
2022-10-31T07:04:44.340Z,94212.59
2022-10-31T07:05:45.808Z,94209.34
2022-10-31T07:06:51.780Z,94210.34
2022-10-31T07:07:54.070Z,94215.09
2022-10-31T07:08:56.866Z,94215.66
2022-10-31T07:09:58.502Z,94214.25
2022-10-31T07:11:00.000Z,94212.13
2022-10-31T07:12:01.435Z,94216.22
2022-10-31T07:13:05.650Z,94216.19
2022-10-31T07:14:07.265Z,94211.31
2022-10-31T07:15:09.301Z,94218.06
2022-10-31T07:16:10.744Z,94217.66
2022-10-31T07:17:12.195Z,94217.84
2022-10-31T07:18:13.665Z,94217.25
2022-10-31T07:19:15.091Z,94221.69
2022-10-31T07:20:16.849Z,94218.91
2022-10-31T07:21:18.300Z,94224.59
2022-10-31T07:22:19.749Z,94220.34
2022-10-31T07:23:21.579Z,94213.63
2022-10-31T07:24:24.352Z,94221.59
2022-10-31T07:25:25.950Z,94214.41
2022-10-31T07:26:27.406Z,94218.25
2022-10-31T07:27:28.817Z,94213.84
2022-10-31T07:28:30.304Z,94219.28
2022-10-31T07:29:31.761Z,94214.25
2022-10-31T07:30:33.591Z,94219.06
2022-10-31T07:31:35.027Z,94213.84
2022-10-31T07:32:40.179Z,94216.72
2022-10-31T07:33:41.662Z,94222.63
2022-10-31T07:34:46.572Z,94215.69
2022-10-31T07:35:49.198Z,94213.63
2022-10-31T07:36:51.787Z,94219.31
2022-10-31T07:37:53.725Z,94220.94
2022-10-31T07:38:55.149Z,94218.31
2022-10-31T07:39:57.942Z,94220.16
2022-10-31T07:40:59.372Z,94214.88
2022-10-31T07:42:00.795Z,94223.84
2022-10-31T07:43:02.437Z,94220.78
2022-10-31T07:44:04.226Z,94223.63
2022-10-31T07:45:07.529Z,94219.56
2022-10-31T07:46:08.950Z,94213.84
2022-10-31T07:47:10.375Z,94216.25
2022-10-31T07:48:11.856Z,94223.25
2022-10-31T07:49:13.755Z,94215.75
2022-10-31T07:50:17.340Z,94221.88
2022-10-31T07:51:18.786Z,94218.41
2022-10-31T07:52:20.237Z,94213.69
2022-10-31T07:53:21.704Z,94219.22
2022-10-31T07:54:23.119Z,94217.44
2022-10-31T07:55:25.975Z,94220.72
2022-10-31T07:56:27.403Z,94207.94
2022-10-31T07:57:34.244Z,94215.91
2022-10-31T07:58:36.238Z,94215.34
2022-10-31T07:59:37.686Z,94207.59
2022-10-31T08:00:40.981Z,94203.34
2022-10-31T08:01:42.973Z,94209.31
2022-10-31T08:02:44.428Z,94206.25
2022-10-31T08:03:45.903Z,94212.88
2022-10-31T08:04:47.381Z,94210.22
2022-10-31T08:05:49.031Z,94214.13
2022-10-31T08:06:50.510Z,94211.44
2022-10-31T08:07:52.070Z,94208.00
2022-10-31T08:08:53.536Z,94216.97
2022-10-31T08:09:55.284Z,94215.16
2022-10-31T08:10:58.894Z,94209.66
2022-10-31T08:12:00.328Z,94216.00
2022-10-31T08:13:03.316Z,94210.94
2022-10-31T08:14:05.026Z,94204.59
2022-10-31T08:15:07.523Z,94201.97
2022-10-31T08:16:08.970Z,94204.44
2022-10-31T08:17:10.659Z,94203.00
2022-10-31T08:18:14.326Z,94210.13
2022-10-31T08:19:15.767Z,94197.09
2022-10-31T08:20:17.207Z,94193.44
2022-10-31T08:21:19.013Z,94201.59
2022-10-31T08:22:20.445Z,94205.06
2022-10-31T08:23:21.958Z,94206.28
2022-10-31T08:24:23.551Z,94205.06
2022-10-31T08:25:26.093Z,94205.28
2022-10-31T08:26:28.899Z,94207.31
2022-10-31T08:27:30.343Z,94205.06
2022-10-31T08:28:31.808Z,94204.88
2022-10-31T08:29:33.374Z,94205.06
2022-10-31T08:30:36.869Z,94205.06
2022-10-31T08:31:42.597Z,94199.94
2022-10-31T08:32:44.423Z,94196.50
2022-10-31T08:33:45.942Z,94198.16
2022-10-31T08:34:47.399Z,94201.38
2022-10-31T08:35:49.000Z,94195.88
2022-10-31T08:36:50.414Z,94185.66
2022-10-31T08:37:53.489Z,94195.44
2022-10-31T08:39:00.597Z,94189.25
2022-10-31T08:40:03.989Z,94193.13
2022-10-31T08:41:05.775Z,94192.50
2022-10-31T08:42:08.571Z,94194.13
2022-10-31T08:43:12.691Z,94187.41
2022-10-31T08:44:14.128Z,94195.13
2022-10-31T08:45:15.838Z,94192.06
2022-10-31T08:46:17.547Z,94194.31
2022-10-31T08:47:19.133Z,94195.75
2022-10-31T08:48:20.697Z,94192.06
2022-10-31T08:49:22.119Z,94186.75
2022-10-31T08:50:23.735Z,94190.25
2022-10-31T08:51:25.322Z,94193.34
2022-10-31T08:52:51.056Z,94192.88
2022-10-31T08:53:48.310Z,94194.31
2022-10-31T08:54:49.738Z,94188.81
2022-10-31T08:55:51.449Z,94194.28
2022-10-31T08:56:55.120Z,94194.50
2022-10-31T08:57:59.181Z,94192.22
2022-10-31T08:59:01.116Z,94185.53
2022-10-31T09:00:03.285Z,94186.31
2022-10-31T09:01:04.943Z,94184.50
2022-10-31T09:02:08.278Z,94186.75
2022-10-31T09:03:12.166Z,94188.41
2022-10-31T09:04:13.722Z,94191.88
2022-10-31T09:05:15.281Z,94184.66
2022-10-31T09:06:16.827Z,94191.06
2022-10-31T09:07:20.986Z,94187.53
2022-10-31T09:08:23.708Z,94183.25
2022-10-31T09:09:25.128Z,94183.44
2022-10-31T09:10:27.932Z,94178.50
2022-10-31T09:11:30.835Z,94185.41
2022-10-31T09:12:32.284Z,94185.59
2022-10-31T09:13:40.246Z,94191.06
2022-10-31T09:14:42.682Z,94197.47
2022-10-31T09:15:46.721Z,94190.34
2022-10-31T09:16:48.203Z,94185.56
2022-10-31T09:17:50.207Z,94189.78
2022-10-31T09:18:51.651Z,94184.75
2022-10-31T09:19:53.083Z,94189.34
2022-10-31T09:20:54.594Z,94189.22
2022-10-31T09:21:56.069Z,94188.72
2022-10-31T09:22:57.846Z,94189.56
2022-10-31T09:23:59.303Z,94190.00
2022-10-31T09:25:00.730Z,94183.50
2022-10-31T09:26:02.818Z,94192.38
2022-10-31T09:27:04.374Z,94184.88
2022-10-31T09:28:07.486Z,94193.00
2022-10-31T09:29:10.338Z,94184.66
2022-10-31T09:30:12.566Z,94191.00
2022-10-31T09:31:14.040Z,94185.44
2022-10-31T09:32:15.504Z,94186.69
2022-10-31T09:33:17.481Z,94181.22
2022-10-31T09:34:18.963Z,94187.97
2022-10-31T09:35:23.146Z,94188.69
2022-10-31T09:36:28.181Z,94188.38
2022-10-31T09:37:29.664Z,94186.06
2022-10-31T09:38:31.116Z,94184.56
2022-10-31T09:39:32.568Z,94185.59
2022-10-31T09:40:36.871Z,94189.06
2022-10-31T09:42:05.017Z,94183.03
2022-10-31T09:43:17.057Z,94185.16
2022-10-31T09:44:29.017Z,94185.59
2022-10-31T09:45:35.659Z,94181.88
2022-10-31T09:46:48.627Z,94184.97
2022-10-31T09:48:03.927Z,94182.44
2022-10-31T09:49:25.517Z,94177.34
2022-10-31T09:50:31.968Z,94174.69
2022-10-31T09:51:38.368Z,94176.31
2022-10-31T09:52:46.281Z,94175.13
2022-10-31T09:53:53.146Z,94172.81
2022-10-31T09:54:59.888Z,94170.72
2022-10-31T09:56:03.104Z,94171.78
2022-10-31T09:57:05.740Z,94172.19
2022-10-31T09:58:14.707Z,94174.63
2022-10-31T09:59:25.241Z,94175.00
2022-10-31T10:00:26.910Z,94175.63
2022-10-31T10:01:38.832Z,94180.06
2022-10-31T10:02:45.880Z,94172.63
2022-10-31T10:03:52.789Z,94171.25
2022-10-31T10:04:58.499Z,94169.66
2022-10-31T10:06:07.367Z,94165.69
2022-10-31T10:07:17.994Z,94174.47
2022-10-31T10:08:21.984Z,94170.34
2022-10-31T10:09:26.956Z,94170.81
2022-10-31T10:10:37.152Z,94169.78
2022-10-31T10:13:11.059Z,94173.81
2022-10-31T10:14:29.536Z,94166.13
2022-10-31T10:15:43.833Z,94166.69
2022-10-31T10:16:58.410Z,94161.66
2022-10-31T10:18:08.156Z,94171.44
2022-10-31T10:19:22.583Z,94172.19
2022-10-31T10:20:32.772Z,94163.41
2022-10-31T10:21:43.397Z,94166.94
2022-10-31T10:22:51.132Z,94166.28
2022-10-31T10:24:04.936Z,94171.25
2022-10-31T10:25:16.735Z,94171.31
2022-10-31T10:26:19.834Z,94169.34
2022-10-31T10:27:28.722Z,94174.75
2022-10-31T10:28:34.004Z,94172.44
2022-10-31T10:29:41.925Z,94172.31
2022-10-31T10:30:47.926Z,94168.22
2022-10-31T10:31:52.564Z,94174.75
2022-10-31T10:32:57.944Z,94170.03
2022-10-31T10:34:08.082Z,94171.94
2022-10-31T10:35:23.374Z,94169.22
2022-10-31T10:36:31.767Z,94173.72
2022-10-31T10:37:36.879Z,94169.72
2022-10-31T10:38:50.589Z,94170.16
2022-10-31T10:39:56.318Z,94169.03
2022-10-31T10:41:01.692Z,94168.03
2022-10-31T10:42:11.578Z,94172.94
2022-10-31T10:43:22.663Z,94170.47
2022-10-31T10:44:24.133Z,94166.88
2022-10-31T10:45:27.245Z,94176.34
2022-10-31T10:46:42.554Z,94169.97
2022-10-31T10:47:48.895Z,94159.25
2022-10-31T10:48:56.669Z,94165.50
2022-10-31T10:49:59.076Z,94167.66
2022-10-31T10:51:02.365Z,94161.44
2022-10-31T10:52:40.737Z,94162.47
2022-10-31T10:53:44.434Z,94157.19
2022-10-31T10:55:00.862Z,94154.00
2022-10-31T10:56:12.365Z,94159.47
2022-10-31T10:57:30.859Z,94157.19
2022-10-31T10:58:32.273Z,94151.34
2022-10-31T10:59:34.937Z,94150.22
2022-10-31T11:00:41.614Z,94148.03
2022-10-31T11:01:43.254Z,94145.66
2022-10-31T11:02:46.518Z,94142.75
2022-10-31T11:03:50.417Z,94146.03
2022-10-31T11:04:53.667Z,94130.72
2022-10-31T11:05:57.659Z,94142.34
2022-10-31T11:07:04.823Z,94140.59
2022-10-31T11:08:07.433Z,94132.72
2022-10-31T11:09:11.657Z,94135.66
2022-10-31T11:10:14.331Z,94139.06
2022-10-31T11:11:24.592Z,94132.44
2022-10-31T11:12:30.021Z,94130.16
2022-10-31T11:13:32.784Z,94132.00
2022-10-31T11:14:43.196Z,94132.91
2022-10-31T11:15:56.337Z,94122.69
2022-10-31T11:17:10.075Z,94116.66
2022-10-31T11:18:21.428Z,94120.19
2022-10-31T11:19:25.458Z,94120.94
2022-10-31T11:20:31.043Z,94117.78
2022-10-31T11:21:32.511Z,94123.75
2022-10-31T11:22:33.955Z,94110.63
2022-10-31T11:23:35.659Z,94123.28
2022-10-31T11:24:42.299Z,94118.50
2022-10-31T11:25:50.289Z,94119.56
2022-10-31T11:26:52.758Z,94117.50
2022-10-31T11:28:00.735Z,94112.84
2022-10-31T11:29:02.599Z,94107.03
2022-10-31T11:30:08.133Z,94104.81
2022-10-31T11:31:13.999Z,94104.94
2022-10-31T11:32:21.059Z,94102.75
2022-10-31T11:33:27.790Z,94102.03
2022-10-31T11:34:32.040Z,94103.78
2022-10-31T11:35:33.609Z,94098.31
2022-10-31T11:36:38.041Z,94103.78
2022-10-31T11:37:43.880Z,94100.03
2022-10-31T11:38:45.668Z,94097.56
2022-10-31T11:39:51.375Z,94102.91
2022-10-31T11:40:55.337Z,94100.72
2022-10-31T11:42:07.688Z,94101.84
2022-10-31T11:43:17.728Z,94103.25
2022-10-31T11:44:21.713Z,94095.22
2022-10-31T11:45:30.706Z,94098.97
2022-10-31T11:46:36.236Z,94095.00
2022-10-31T11:47:37.695Z,94096.50
2022-10-31T11:48:39.187Z,94101.75
2022-10-31T11:49:42.944Z,94094.78
2022-10-31T11:50:51.085Z,94096.06
2022-10-31T11:51:56.234Z,94091.75
2022-10-31T11:52:57.805Z,94094.56
2022-10-31T11:54:03.054Z,94097.44
2022-10-31T11:55:16.988Z,94084.31
2022-10-31T11:56:18.631Z,94082.00
2022-10-31T11:57:29.414Z,94081.84
2022-10-31T11:58:30.910Z,94078.25
2022-10-31T11:59:32.813Z,94075.91
2022-10-31T12:00:38.100Z,94080.81
2022-10-31T12:01:48.515Z,94068.88
2022-10-31T12:02:50.534Z,94077.38
2022-10-31T12:04:00.998Z,94070.84
2022-10-31T12:05:08.715Z,94073.72
2022-10-31T12:06:16.925Z,94065.75
2022-10-31T12:07:18.417Z,94070.09
2022-10-31T12:08:20.450Z,94061.06
2022-10-31T12:09:24.259Z,94064.44
2022-10-31T12:10:31.810Z,94061.34
2022-10-31T12:11:48.372Z,94060.13
2022-10-31T12:13:04.728Z,94059.56
2022-10-31T12:14:21.400Z,94055.59
2022-10-31T12:15:31.190Z,94061.09
2022-10-31T12:16:40.475Z,94056.31
2022-10-31T12:17:48.333Z,94051.13
2022-10-31T12:18:59.946Z,94061.09
2022-10-31T12:20:12.135Z,94057.88
2022-10-31T12:21:24.963Z,94052.47
2022-10-31T12:22:37.226Z,94053.66
2022-10-31T12:23:50.042Z,94052.59
2022-10-31T12:25:05.220Z,94048.44
2022-10-31T12:26:15.649Z,94045.41
2022-10-31T12:27:29.442Z,94043.44
2022-10-31T12:28:47.228Z,94043.09
2022-10-31T12:30:09.536Z,94039.69
2022-10-31T12:31:25.524Z,94041.31
2022-10-31T12:32:35.812Z,94039.69
2022-10-31T12:33:54.155Z,94042.50
2022-10-31T12:35:21.127Z,94035.44
2022-10-31T12:36:37.104Z,94043.25
2022-10-31T12:37:54.159Z,94036.75
2022-10-31T12:39:26.245Z,94028.97
2022-10-31T12:40:46.981Z,94033.59